sensor_id;sensor_type;location;lat;lon;timestamp;P1;P2;P0
76101;PMS7003;64830;46.910;6.354;2023-11-19T00:00:21;1.50;1.50;1.25
76101;PMS7003;64830;46.910;6.354;2023-11-19T00:02:46;0.00;0.00;0.00
76101;PMS7003;64830;46.910;6.354;2023-11-19T00:05:12;0.50;0.00;0.00
76101;PMS7003;64830;46.910;6.354;2023-11-19T00:07:38;1.00;0.00;0.00
76101;PMS7003;64830;46.910;6.354;2023-11-19T00:10:11;0.00;0.00;0.00
76101;PMS7003;64830;46.910;6.354;2023-11-19T00:12:38;0.00;0.00;0.00
76101;PMS7003;64830;46.910;6.354;2023-11-19T00:15:05;0.00;0.00;0.00
76101;PMS7003;64830;46.910;6.354;2023-11-19T00:17:31;0.00;0.00;0.00
76101;PMS7003;64830;46.910;6.354;2023-11-19T00:19:57;0.00;0.00;0.00
76101;PMS7003;64830;46.910;6.354;2023-11-19T00:22:22;0.00;0.00;0.00
76101;PMS7003;64830;46.910;6.354;2023-11-19T00:24:48;1.00;0.00;0.00
76101;PMS7003;64830;46.910;6.354;2023-11-19T00:27:13;0.00;0.00;0.00
76101;PMS7003;64830;46.910;6.354;2023-11-19T00:29:39;0.00;0.00;0.00
76101;PMS7003;64830;46.910;6.354;2023-11-19T00:32:04;0.00;0.00;0.00
76101;PMS7003;64830;46.910;6.354;2023-11-19T00:34:30;0.00;0.00;0.00
76101;PMS7003;64830;46.910;6.354;2023-11-19T00:36:56;0.00;0.00;0.00
76101;PMS7003;64830;46.910;6.354;2023-11-19T00:39:21;0.00;0.00;0.00
76101;PMS7003;64830;46.910;6.354;2023-11-19T00:41:47;0.00;0.00;0.00
76101;PMS7003;64830;46.910;6.354;2023-11-19T00:44:13;0.00;0.00;0.00
76101;PMS7003;64830;46.910;6.354;2023-11-19T00:46:38;0.00;0.00;0.00
76101;PMS7003;64830;46.910;6.354;2023-11-19T00:49:04;0.00;0.00;0.00
76101;PMS7003;64830;46.910;6.354;2023-11-19T00:51:30;0.00;0.00;0.00
76101;PMS7003;64830;46.910;6.354;2023-11-19T00:53:56;0.00;0.00;0.00
76101;PMS7003;64830;46.910;6.354;2023-11-19T00:56:22;0.00;0.00;0.00
76101;PMS7003;64830;46.910;6.354;2023-11-19T00:58:48;0.00;0.00;0.00
76101;PMS7003;64830;46.910;6.354;2023-11-19T01:01:13;0.00;0.00;0.00
76101;PMS7003;64830;46.910;6.354;2023-11-19T01:03:39;0.00;0.00;0.00
76101;PMS7003;64830;46.910;6.354;2023-11-19T01:06:04;0.00;0.00;0.00
76101;PMS7003;64830;46.910;6.354;2023-11-19T01:08:30;0.00;0.00;0.00
76101;PMS7003;64830;46.910;6.354;2023-11-19T01:10:55;0.00;0.00;0.00
76101;PMS7003;64830;46.910;6.354;2023-11-19T01:13:21;0.00;0.00;0.00
76101;PMS7003;64830;46.910;6.354;2023-11-19T01:15:47;0.00;0.00;0.00
76101;PMS7003;64830;46.910;6.354;2023-11-19T01:18:13;0.00;0.00;0.00
76101;PMS7003;64830;46.910;6.354;2023-11-19T01:20:38;0.00;0.00;0.00
76101;PMS7003;64830;46.910;6.354;2023-11-19T01:23:04;1.00;0.00;0.00
76101;PMS7003;64830;46.910;6.354;2023-11-19T01:25:30;0.00;0.00;0.00
76101;PMS7003;64830;46.910;6.354;2023-11-19T01:27:55;0.00;0.00;0.00
76101;PMS7003;64830;46.910;6.354;2023-11-19T01:30:23;0.00;0.00;0.00
76101;PMS7003;64830;46.910;6.354;2023-11-19T01:32:49;0.00;0.00;0.00
76101;PMS7003;64830;46.910;6.354;2023-11-19T01:35:14;1.00;0.00;0.00
76101;PMS7003;64830;46.910;6.354;2023-11-19T01:37:40;0.50;0.00;0.00
76101;PMS7003;64830;46.910;6.354;2023-11-19T01:40:05;0.00;0.00;0.00
76101;PMS7003;64830;46.910;6.354;2023-11-19T01:42:39;0.00;0.00;0.00
76101;PMS7003;64830;46.910;6.354;2023-11-19T01:45:05;0.00;0.00;0.00
76101;PMS7003;64830;46.910;6.354;2023-11-19T01:47:33;0.00;0.00;0.00
76101;PMS7003;64830;46.910;6.354;2023-11-19T01:49:59;0.00;0.00;0.00
76101;PMS7003;64830;46.910;6.354;2023-11-19T01:52:25;0.00;0.00;0.00
76101;PMS7003;64830;46.910;6.354;2023-11-19T01:54:52;0.25;0.00;0.00
76101;PMS7003;64830;46.910;6.354;2023-11-19T01:57:20;0.00;0.00;0.00
76101;PMS7003;64830;46.910;6.354;2023-11-19T01:59:48;0.00;0.00;0.00
76101;PMS7003;64830;46.910;6.354;2023-11-19T02:02:15;0.00;0.00;0.00
76101;PMS7003;64830;46.910;6.354;2023-11-19T02:04:45;0.00;0.00;0.00
76101;PMS7003;64830;46.910;6.354;2023-11-19T02:07:13;0.00;0.00;0.00
76101;PMS7003;64830;46.910;6.354;2023-11-19T02:09:41;0.00;0.00;0.00
76101;PMS7003;64830;46.910;6.354;2023-11-19T02:12:07;0.00;0.00;0.00
76101;PMS7003;64830;46.910;6.354;2023-11-19T02:14:34;0.00;0.00;0.00
76101;PMS7003;64830;46.910;6.354;2023-11-19T02:16:59;0.25;0.00;0.00
76101;PMS7003;64830;46.910;6.354;2023-11-19T02:19:25;0.00;0.00;0.00
76101;PMS7003;64830;46.910;6.354;2023-11-19T02:21:50;0.00;0.00;0.00
76101;PMS7003;64830;46.910;6.354;2023-11-19T02:24:16;0.00;0.00;0.00
76101;PMS7003;64830;46.910;6.354;2023-11-19T02:26:57;0.00;0.00;0.00
76101;PMS7003;64830;46.910;6.354;2023-11-19T02:29:32;0.00;0.00;0.00
76101;PMS7003;64830;46.910;6.354;2023-11-19T02:31:59;0.00;0.00;0.00
76101;PMS7003;64830;46.910;6.354;2023-11-19T02:34:28;0.00;0.00;0.00
76101;PMS7003;64830;46.910;6.354;2023-11-19T02:36:53;0.00;0.00;0.00
76101;PMS7003;64830;46.910;6.354;2023-11-19T02:39:19;0.00;0.00;0.00
76101;PMS7003;64830;46.910;6.354;2023-11-19T02:41:46;0.00;0.00;0.00
76101;PMS7003;64830;46.910;6.354;2023-11-19T02:44:14;0.00;0.00;0.00
76101;PMS7003;64830;46.910;6.354;2023-11-19T02:46:39;1.00;0.00;0.00
76101;PMS7003;64830;46.910;6.354;2023-11-19T02:49:07;1.00;0.00;0.00
76101;PMS7003;64830;46.910;6.354;2023-11-19T02:51:33;0.00;0.00;0.00
76101;PMS7003;64830;46.910;6.354;2023-11-19T02:53:59;0.25;0.00;0.00
76101;PMS7003;64830;46.910;6.354;2023-11-19T02:56:25;0.00;0.00;0.00
76101;PMS7003;64830;46.910;6.354;2023-11-19T02:58:51;1.00;0.00;0.00
76101;PMS7003;64830;46.910;6.354;2023-11-19T03:01:24;0.00;0.00;0.00
76101;PMS7003;64830;46.910;6.354;2023-11-19T03:03:55;0.00;0.00;0.00
76101;PMS7003;64830;46.910;6.354;2023-11-19T03:06:23;0.00;0.00;0.00
76101;PMS7003;64830;46.910;6.354;2023-11-19T03:08:48;0.00;0.00;0.00
76101;PMS7003;64830;46.910;6.354;2023-11-19T03:11:14;0.75;0.00;0.00
76101;PMS7003;64830;46.910;6.354;2023-11-19T03:13:40;0.00;0.00;0.00
76101;PMS7003;64830;46.910;6.354;2023-11-19T03:16:05;0.50;0.50;0.00
76101;PMS7003;64830;46.910;6.354;2023-11-19T03:18:31;0.00;0.00;0.00
76101;PMS7003;64830;46.910;6.354;2023-11-19T03:20:56;0.00;0.00;0.00
76101;PMS7003;64830;46.910;6.354;2023-11-19T03:23:23;0.00;0.00;0.00
76101;PMS7003;64830;46.910;6.354;2023-11-19T03:25:50;0.00;0.00;0.00
76101;PMS7003;64830;46.910;6.354;2023-11-19T03:28:15;0.00;0.00;0.00
76101;PMS7003;64830;46.910;6.354;2023-11-19T03:30:41;0.00;0.00;0.00
76101;PMS7003;64830;46.910;6.354;2023-11-19T03:33:06;0.00;0.00;0.00
76101;PMS7003;64830;46.910;6.354;2023-11-19T03:35:31;0.00;0.00;0.00
76101;PMS7003;64830;46.910;6.354;2023-11-19T03:37:58;0.00;0.00;0.00
76101;PMS7003;64830;46.910;6.354;2023-11-19T03:40:23;0.00;0.00;0.00
76101;PMS7003;64830;46.910;6.354;2023-11-19T03:42:50;0.00;0.00;0.00
76101;PMS7003;64830;46.910;6.354;2023-11-19T03:45:15;0.00;0.00;0.00
76101;PMS7003;64830;46.910;6.354;2023-11-19T03:47:41;0.00;0.00;0.00
76101;PMS7003;64830;46.910;6.354;2023-11-19T03:50:06;0.00;0.00;0.00
76101;PMS7003;64830;46.910;6.354;2023-11-19T03:52:33;0.00;0.00;0.00
76101;PMS7003;64830;46.910;6.354;2023-11-19T03:54:58;0.00;0.00;0.00
76101;PMS7003;64830;46.910;6.354;2023-11-19T03:57:24;1.00;0.00;0.00
76101;PMS7003;64830;46.910;6.354;2023-11-19T03:59:49;0.00;0.00;0.00
76101;PMS7003;64830;46.910;6.354;2023-11-19T04:02:15;0.00;0.00;0.00
76101;PMS7003;64830;46.910;6.354;2023-11-19T04:04:41;0.00;0.00;0.00
76101;PMS7003;64830;46.910;6.354;2023-11-19T04:07:06;1.00;0.00;0.00
76101;PMS7003;64830;46.910;6.354;2023-11-19T04:09:32;0.00;0.00;0.00
76101;PMS7003;64830;46.910;6.354;2023-11-19T04:12:02;0.00;0.00;0.00
76101;PMS7003;64830;46.910;6.354;2023-11-19T04:14:28;0.00;0.00;0.00
76101;PMS7003;64830;46.910;6.354;2023-11-19T04:16:54;0.50;0.50;0.50
76101;PMS7003;64830;46.910;6.354;2023-11-19T04:19:19;2.50;2.50;2.25
76101;PMS7003;64830;46.910;6.354;2023-11-19T04:21:45;1.00;1.00;0.75
76101;PMS7003;64830;46.910;6.354;2023-11-19T04:24:11;2.00;2.00;2.00
76101;PMS7003;64830;46.910;6.354;2023-11-19T04:26:39;7.75;7.75;6.00
76101;PMS7003;64830;46.910;6.354;2023-11-19T04:29:06;9.50;9.50;7.50
76101;PMS7003;64830;46.910;6.354;2023-11-19T04:31:33;4.75;4.75;4.00
76101;PMS7003;64830;46.910;6.354;2023-11-19T04:33:59;4.00;3.00;3.00
76101;PMS7003;64830;46.910;6.354;2023-11-19T04:36:25;8.00;7.00;7.00
76101;PMS7003;64830;46.910;6.354;2023-11-19T04:38:51;2.75;2.75;2.75
76101;PMS7003;64830;46.910;6.354;2023-11-19T04:41:16;1.00;1.00;0.75
76101;PMS7003;64830;46.910;6.354;2023-11-19T04:43:41;0.00;0.00;0.00
76101;PMS7003;64830;46.910;6.354;2023-11-19T04:46:07;0.00;0.00;0.00
76101;PMS7003;64830;46.910;6.354;2023-11-19T04:48:34;0.00;0.00;0.00
76101;PMS7003;64830;46.910;6.354;2023-11-19T04:51:00;0.00;0.00;0.00
76101;PMS7003;64830;46.910;6.354;2023-11-19T04:53:25;0.00;0.00;0.00
76101;PMS7003;64830;46.910;6.354;2023-11-19T04:55:51;0.00;0.00;0.00
76101;PMS7003;64830;46.910;6.354;2023-11-19T04:58:16;0.25;0.25;0.00
76101;PMS7003;64830;46.910;6.354;2023-11-19T05:00:41;5.25;5.25;5.00
76101;PMS7003;64830;46.910;6.354;2023-11-19T05:03:07;8.75;6.25;5.00
76101;PMS7003;64830;46.910;6.354;2023-11-19T05:05:33;3.75;3.75;3.50
76101;PMS7003;64830;46.910;6.354;2023-11-19T05:07:58;0.00;0.00;0.00
76101;PMS7003;64830;46.910;6.354;2023-11-19T05:10:24;0.00;0.00;0.00
76101;PMS7003;64830;46.910;6.354;2023-11-19T05:12:49;0.00;0.00;0.00
76101;PMS7003;64830;46.910;6.354;2023-11-19T05:15:16;0.00;0.00;0.00
76101;PMS7003;64830;46.910;6.354;2023-11-19T05:17:42;0.00;0.00;0.00
76101;PMS7003;64830;46.910;6.354;2023-11-19T05:20:07;0.00;0.00;0.00
76101;PMS7003;64830;46.910;6.354;2023-11-19T05:22:41;0.00;0.00;0.00
76101;PMS7003;64830;46.910;6.354;2023-11-19T05:25:07;0.00;0.00;0.00
76101;PMS7003;64830;46.910;6.354;2023-11-19T05:27:36;0.00;0.00;0.00
76101;PMS7003;64830;46.910;6.354;2023-11-19T05:30:02;0.00;0.00;0.00
76101;PMS7003;64830;46.910;6.354;2023-11-19T05:32:28;0.00;0.00;0.00
76101;PMS7003;64830;46.910;6.354;2023-11-19T05:34:54;0.00;0.00;0.00
76101;PMS7003;64830;46.910;6.354;2023-11-19T05:37:19;0.00;0.00;0.00
76101;PMS7003;64830;46.910;6.354;2023-11-19T05:39:45;0.00;0.00;0.00
76101;PMS7003;64830;46.910;6.354;2023-11-19T05:42:10;0.00;0.00;0.00
76101;PMS7003;64830;46.910;6.354;2023-11-19T05:44:36;0.00;0.00;0.00
76101;PMS7003;64830;46.910;6.354;2023-11-19T05:47:02;0.00;0.00;0.00
76101;PMS7003;64830;46.910;6.354;2023-11-19T05:49:28;0.00;0.00;0.00
76101;PMS7003;64830;46.910;6.354;2023-11-19T05:51:54;1.50;0.00;0.00
76101;PMS7003;64830;46.910;6.354;2023-11-19T05:54:20;0.00;0.00;0.00
76101;PMS7003;64830;46.910;6.354;2023-11-19T05:56:49;0.00;0.00;0.00
76101;PMS7003;64830;46.910;6.354;2023-11-19T05:59:15;0.00;0.00;0.00
76101;PMS7003;64830;46.910;6.354;2023-11-19T06:01:43;0.00;0.00;0.00
76101;PMS7003;64830;46.910;6.354;2023-11-19T06:04:08;0.00;0.00;0.00
76101;PMS7003;64830;46.910;6.354;2023-11-19T06:06:35;0.00;0.00;0.00
76101;PMS7003;64830;46.910;6.354;2023-11-19T06:09:00;0.00;0.00;0.00
76101;PMS7003;64830;46.910;6.354;2023-11-19T06:11:27;0.00;0.00;0.00
76101;PMS7003;64830;46.910;6.354;2023-11-19T06:13:52;0.00;0.00;0.00
76101;PMS7003;64830;46.910;6.354;2023-11-19T06:16:18;0.00;0.00;0.00
76101;PMS7003;64830;46.910;6.354;2023-11-19T06:18:43;0.00;0.00;0.00
76101;PMS7003;64830;46.910;6.354;2023-11-19T06:21:09;0.00;0.00;0.00
76101;PMS7003;64830;46.910;6.354;2023-11-19T06:23:35;0.00;0.00;0.00
76101;PMS7003;64830;46.910;6.354;2023-11-19T06:26:00;1.00;0.00;0.00
76101;PMS7003;64830;46.910;6.354;2023-11-19T06:28:26;4.00;4.00;3.00
76101;PMS7003;64830;46.910;6.354;2023-11-19T06:30:51;8.25;8.25;7.50
76101;PMS7003;64830;46.910;6.354;2023-11-19T06:33:16;0.00;0.00;0.00
76101;PMS7003;64830;46.910;6.354;2023-11-19T06:35:42;0.00;0.00;0.00
76101;PMS7003;64830;46.910;6.354;2023-11-19T06:38:07;0.00;0.00;0.00
76101;PMS7003;64830;46.910;6.354;2023-11-19T06:40:33;0.00;0.00;0.00
76101;PMS7003;64830;46.910;6.354;2023-11-19T06:43:02;0.25;0.00;0.00
76101;PMS7003;64830;46.910;6.354;2023-11-19T06:45:28;0.00;0.00;0.00
76101;PMS7003;64830;46.910;6.354;2023-11-19T06:47:54;0.00;0.00;0.00
76101;PMS7003;64830;46.910;6.354;2023-11-19T06:50:20;0.00;0.00;0.00
76101;PMS7003;64830;46.910;6.354;2023-11-19T06:52:46;0.00;0.00;0.00
76101;PMS7003;64830;46.910;6.354;2023-11-19T06:55:11;0.00;0.00;0.00
76101;PMS7003;64830;46.910;6.354;2023-11-19T06:57:37;0.00;0.00;0.00
76101;PMS7003;64830;46.910;6.354;2023-11-19T07:00:02;0.00;0.00;0.00
76101;PMS7003;64830;46.910;6.354;2023-11-19T07:02:30;0.00;0.00;0.00
76101;PMS7003;64830;46.910;6.354;2023-11-19T07:04:55;0.50;0.00;0.00
76101;PMS7003;64830;46.910;6.354;2023-11-19T07:07:21;0.00;0.00;0.00
76101;PMS7003;64830;46.910;6.354;2023-11-19T07:09:46;0.00;0.00;0.00
76101;PMS7003;64830;46.910;6.354;2023-11-19T07:12:13;0.00;0.00;0.00
76101;PMS7003;64830;46.910;6.354;2023-11-19T07:14:39;0.00;0.00;0.00
76101;PMS7003;64830;46.910;6.354;2023-11-19T07:17:05;2.00;1.25;1.00
76101;PMS7003;64830;46.910;6.354;2023-11-19T07:19:31;1.00;1.00;1.00
76101;PMS7003;64830;46.910;6.354;2023-11-19T07:21:56;1.00;0.00;0.00
76101;PMS7003;64830;46.910;6.354;2023-11-19T07:24:22;2.00;2.00;2.00
76101;PMS7003;64830;46.910;6.354;2023-11-19T07:26:47;1.00;1.00;1.00
76101;PMS7003;64830;46.910;6.354;2023-11-19T07:29:13;1.00;1.00;0.75
76101;PMS7003;64830;46.910;6.354;2023-11-19T07:31:40;0.00;0.00;0.00
76101;PMS7003;64830;46.910;6.354;2023-11-19T07:34:05;1.00;0.00;0.00
76101;PMS7003;64830;46.910;6.354;2023-11-19T07:36:31;1.00;0.00;0.00
76101;PMS7003;64830;46.910;6.354;2023-11-19T07:38:57;0.00;0.00;0.00
76101;PMS7003;64830;46.910;6.354;2023-11-19T07:41:23;0.00;0.00;0.00
76101;PMS7003;64830;46.910;6.354;2023-11-19T07:43:50;0.00;0.00;0.00
76101;PMS7003;64830;46.910;6.354;2023-11-19T07:46:16;0.00;0.00;0.00
76101;PMS7003;64830;46.910;6.354;2023-11-19T07:48:44;0.00;0.00;0.00
76101;PMS7003;64830;46.910;6.354;2023-11-19T07:51:12;0.00;0.00;0.00
76101;PMS7003;64830;46.910;6.354;2023-11-19T07:53:38;1.00;0.00;0.00
76101;PMS7003;64830;46.910;6.354;2023-11-19T07:56:03;0.00;0.00;0.00
76101;PMS7003;64830;46.910;6.354;2023-11-19T07:58:29;0.00;0.00;0.00
76101;PMS7003;64830;46.910;6.354;2023-11-19T08:00:54;0.00;0.00;0.00
76101;PMS7003;64830;46.910;6.354;2023-11-19T08:03:20;0.00;0.00;0.00
76101;PMS7003;64830;46.910;6.354;2023-11-19T08:05:47;1.00;0.00;0.00
76101;PMS7003;64830;46.910;6.354;2023-11-19T08:08:13;0.00;0.00;0.00
76101;PMS7003;64830;46.910;6.354;2023-11-19T08:10:38;0.00;0.00;0.00
76101;PMS7003;64830;46.910;6.354;2023-11-19T08:13:05;0.00;0.00;0.00
76101;PMS7003;64830;46.910;6.354;2023-11-19T08:15:31;0.00;0.00;0.00
76101;PMS7003;64830;46.910;6.354;2023-11-19T08:17:56;0.00;0.00;0.00
76101;PMS7003;64830;46.910;6.354;2023-11-19T08:20:22;0.00;0.00;0.00
76101;PMS7003;64830;46.910;6.354;2023-11-19T08:22:48;1.00;0.00;0.00
76101;PMS7003;64830;46.910;6.354;2023-11-19T08:25:14;0.00;0.00;0.00
76101;PMS7003;64830;46.910;6.354;2023-11-19T08:27:39;1.00;0.00;0.00
76101;PMS7003;64830;46.910;6.354;2023-11-19T08:30:05;0.00;0.00;0.00
76101;PMS7003;64830;46.910;6.354;2023-11-19T08:32:32;0.00;0.00;0.00
76101;PMS7003;64830;46.910;6.354;2023-11-19T08:34:57;0.00;0.00;0.00
76101;PMS7003;64830;46.910;6.354;2023-11-19T08:37:23;0.00;0.00;0.00
76101;PMS7003;64830;46.910;6.354;2023-11-19T08:39:48;1.50;0.25;0.25
76101;PMS7003;64830;46.910;6.354;2023-11-19T08:42:15;4.50;4.50;4.00
76101;PMS7003;64830;46.910;6.354;2023-11-19T08:44:41;8.00;8.00;6.50
76101;PMS7003;64830;46.910;6.354;2023-11-19T08:47:12;1.00;1.00;0.50
76101;PMS7003;64830;46.910;6.354;2023-11-19T08:49:39;0.00;0.00;0.00
76101;PMS7003;64830;46.910;6.354;2023-11-19T08:52:04;0.00;0.00;0.00
76101;PMS7003;64830;46.910;6.354;2023-11-19T08:54:32;0.00;0.00;0.00
76101;PMS7003;64830;46.910;6.354;2023-11-19T08:56:58;0.00;0.00;0.00
76101;PMS7003;64830;46.910;6.354;2023-11-19T08:59:24;0.00;0.00;0.00
76101;PMS7003;64830;46.910;6.354;2023-11-19T09:01:49;0.00;0.00;0.00
76101;PMS7003;64830;46.910;6.354;2023-11-19T09:04:15;5.00;4.75;4.50
76101;PMS7003;64830;46.910;6.354;2023-11-19T09:06:41;2.00;1.75;1.25
76101;PMS7003;64830;46.910;6.354;2023-11-19T09:09:07;2.00;2.00;2.00
76101;PMS7003;64830;46.910;6.354;2023-11-19T09:11:33;4.00;4.00;3.50
76101;PMS7003;64830;46.910;6.354;2023-11-19T09:13:58;5.00;5.00;4.00
76101;PMS7003;64830;46.910;6.354;2023-11-19T09:16:24;8.00;6.00;6.00
76101;PMS7003;64830;46.910;6.354;2023-11-19T09:18:50;6.25;5.00;4.25
76101;PMS7003;64830;46.910;6.354;2023-11-19T09:21:16;4.00;3.25;3.00
76101;PMS7003;64830;46.910;6.354;2023-11-19T09:23:41;1.00;1.00;1.00
76101;PMS7003;64830;46.910;6.354;2023-11-19T09:26:07;0.75;0.00;0.00
76101;PMS7003;64830;46.910;6.354;2023-11-19T09:28:33;0.00;0.00;0.00
76101;PMS7003;64830;46.910;6.354;2023-11-19T09:30:59;0.00;0.00;0.00
76101;PMS7003;64830;46.910;6.354;2023-11-19T09:33:24;0.00;0.00;0.00
76101;PMS7003;64830;46.910;6.354;2023-11-19T09:35:50;0.00;0.00;0.00
76101;PMS7003;64830;46.910;6.354;2023-11-19T09:38:15;0.00;0.00;0.00
76101;PMS7003;64830;46.910;6.354;2023-11-19T09:40:41;0.00;0.00;0.00
76101;PMS7003;64830;46.910;6.354;2023-11-19T09:43:07;0.00;0.00;0.00
76101;PMS7003;64830;46.910;6.354;2023-11-19T09:45:36;0.50;0.50;0.00
76101;PMS7003;64830;46.910;6.354;2023-11-19T09:48:17;0.00;0.00;0.00
76101;PMS7003;64830;46.910;6.354;2023-11-19T09:50:44;1.25;0.25;0.00
76101;PMS7003;64830;46.910;6.354;2023-11-19T09:53:11;0.25;0.25;0.00
76101;PMS7003;64830;46.910;6.354;2023-11-19T09:55:37;1.00;0.00;0.00
76101;PMS7003;64830;46.910;6.354;2023-11-19T09:58:02;0.00;0.00;0.00
76101;PMS7003;64830;46.910;6.354;2023-11-19T10:00:28;1.00;1.00;0.50
76101;PMS7003;64830;46.910;6.354;2023-11-19T10:02:55;0.00;0.00;0.00
76101;PMS7003;64830;46.910;6.354;2023-11-19T10:05:22;0.00;0.00;0.00
76101;PMS7003;64830;46.910;6.354;2023-11-19T10:07:49;1.00;1.00;0.00
76101;PMS7003;64830;46.910;6.354;2023-11-19T10:10:15;0.75;0.75;0.75
76101;PMS7003;64830;46.910;6.354;2023-11-19T10:12:44;0.00;0.00;0.00
76101;PMS7003;64830;46.910;6.354;2023-11-19T10:15:14;0.00;0.00;0.00
76101;PMS7003;64830;46.910;6.354;2023-11-19T10:17:47;0.00;0.00;0.00
76101;PMS7003;64830;46.910;6.354;2023-11-19T10:20:12;1.00;1.00;1.00
76101;PMS7003;64830;46.910;6.354;2023-11-19T10:22:38;1.00;0.00;0.00
76101;PMS7003;64830;46.910;6.354;2023-11-19T10:25:04;0.00;0.00;0.00
76101;PMS7003;64830;46.910;6.354;2023-11-19T10:27:48;0.75;0.75;0.75
76101;PMS7003;64830;46.910;6.354;2023-11-19T10:30:17;2.00;2.00;1.25
76101;PMS7003;64830;46.910;6.354;2023-11-19T10:32:49;4.75;4.00;3.00
76101;PMS7003;64830;46.910;6.354;2023-11-19T10:35:51;2.00;2.00;2.00
76101;PMS7003;64830;46.910;6.354;2023-11-19T10:38:23;0.00;0.00;0.00
76101;PMS7003;64830;46.910;6.354;2023-11-19T10:40:50;0.00;0.00;0.00
76101;PMS7003;64830;46.910;6.354;2023-11-19T10:43:16;0.00;0.00;0.00
76101;PMS7003;64830;46.910;6.354;2023-11-19T10:45:42;0.00;0.00;0.00
76101;PMS7003;64830;46.910;6.354;2023-11-19T10:48:08;0.50;0.50;0.00
76101;PMS7003;64830;46.910;6.354;2023-11-19T10:50:35;2.00;2.00;2.00
76101;PMS7003;64830;46.910;6.354;2023-11-19T10:53:02;1.00;1.00;1.00
76101;PMS7003;64830;46.910;6.354;2023-11-19T10:55:35;1.00;1.00;0.75
76101;PMS7003;64830;46.910;6.354;2023-11-19T10:58:04;1.50;1.00;1.00
76101;PMS7003;64830;46.910;6.354;2023-11-19T11:03:14;3.25;3.25;3.25
76101;PMS7003;64830;46.910;6.354;2023-11-19T11:05:42;1.00;1.00;1.00
76101;PMS7003;64830;46.910;6.354;2023-11-19T11:08:07;1.00;1.00;1.00
76101;PMS7003;64830;46.910;6.354;2023-11-19T11:10:35;11.00;10.50;7.50
76101;PMS7003;64830;46.910;6.354;2023-11-19T11:13:16;6.00;6.00;5.00
76101;PMS7003;64830;46.910;6.354;2023-11-19T11:15:43;8.50;8.50;7.25
76101;PMS7003;64830;46.910;6.354;2023-11-19T11:18:11;9.50;9.50;7.00
76101;PMS7003;64830;46.910;6.354;2023-11-19T11:20:38;6.00;5.50;5.00
76101;PMS7003;64830;46.910;6.354;2023-11-19T11:28:50;2.50;1.25;1.25
76101;PMS7003;64830;46.910;6.354;2023-11-19T11:31:44;2.00;2.00;2.00
76101;PMS7003;64830;46.910;6.354;2023-11-19T11:40:03;1.00;1.00;1.00
76101;PMS7003;64830;46.910;6.354;2023-11-19T11:42:35;0.50;0.50;0.00
76101;PMS7003;64830;46.910;6.354;2023-11-19T11:55:25;10.00;10.00;9.00
76101;PMS7003;64830;46.910;6.354;2023-11-19T11:58:01;1.00;1.00;1.00
76101;PMS7003;64830;46.910;6.354;2023-11-19T12:00:39;0.00;0.00;0.00
76101;PMS7003;64830;46.910;6.354;2023-11-19T12:03:06;2.75;2.75;2.25
76101;PMS7003;64830;46.910;6.354;2023-11-19T12:05:32;6.00;6.00;5.00
76101;PMS7003;64830;46.910;6.354;2023-11-19T12:08:05;12.00;11.75;10.00
76101;PMS7003;64830;46.910;6.354;2023-11-19T12:10:46;9.00;8.00;6.25
76101;PMS7003;64830;46.910;6.354;2023-11-19T12:13:13;10.00;10.00;9.00
76101;PMS7003;64830;46.910;6.354;2023-11-19T12:18:26;10.50;8.25;6.00
76101;PMS7003;64830;46.910;6.354;2023-11-19T12:20:53;13.50;12.00;9.75
76101;PMS7003;64830;46.910;6.354;2023-11-19T12:23:19;3.75;2.75;2.75
76101;PMS7003;64830;46.910;6.354;2023-11-19T12:25:44;10.75;10.00;9.00
76101;PMS7003;64830;46.910;6.354;2023-11-19T12:28:16;8.75;6.25;5.25
76101;PMS7003;64830;46.910;6.354;2023-11-19T12:30:43;4.75;4.25;3.50
76101;PMS7003;64830;46.910;6.354;2023-11-19T12:33:13;4.25;4.25;3.50
76101;PMS7003;64830;46.910;6.354;2023-11-19T12:35:43;1.00;1.00;0.75
76101;PMS7003;64830;46.910;6.354;2023-11-19T12:38:22;0.00;0.00;0.00
76101;PMS7003;64830;46.910;6.354;2023-11-19T12:41:04;5.50;5.50;4.75
76101;PMS7003;64830;46.910;6.354;2023-11-19T12:43:30;3.25;3.25;3.00
76101;PMS7003;64830;46.910;6.354;2023-11-19T12:45:56;1.00;1.00;0.50
76101;PMS7003;64830;46.910;6.354;2023-11-19T12:48:21;0.00;0.00;0.00
76101;PMS7003;64830;46.910;6.354;2023-11-19T12:53:19;3.00;1.00;1.00
76101;PMS7003;64830;46.910;6.354;2023-11-19T12:55:46;2.00;2.00;2.00
76101;PMS7003;64830;46.910;6.354;2023-11-19T12:58:27;1.00;1.00;1.00
76101;PMS7003;64830;46.910;6.354;2023-11-19T13:01:07;1.00;1.00;1.00
76101;PMS7003;64830;46.910;6.354;2023-11-19T13:03:35;0.00;0.00;0.00
76101;PMS7003;64830;46.910;6.354;2023-11-19T13:06:07;0.00;0.00;0.00
76101;PMS7003;64830;46.910;6.354;2023-11-19T13:08:36;3.75;3.75;3.00
76101;PMS7003;64830;46.910;6.354;2023-11-19T13:11:03;3.75;2.50;2.00
76101;PMS7003;64830;46.910;6.354;2023-11-19T13:13:28;3.00;3.00;2.00
76101;PMS7003;64830;46.910;6.354;2023-11-19T13:16:01;0.75;0.75;0.00
76101;PMS7003;64830;46.910;6.354;2023-11-19T13:18:30;1.00;1.00;1.00
76101;PMS7003;64830;46.910;6.354;2023-11-19T13:20:56;0.00;0.00;0.00
76101;PMS7003;64830;46.910;6.354;2023-11-19T13:23:22;0.00;0.00;0.00
76101;PMS7003;64830;46.910;6.354;2023-11-19T13:25:47;1.00;0.75;0.00
76101;PMS7003;64830;46.910;6.354;2023-11-19T13:28:13;0.75;0.75;0.75
76101;PMS7003;64830;46.910;6.354;2023-11-19T13:30:39;0.00;0.00;0.00
76101;PMS7003;64830;46.910;6.354;2023-11-19T13:33:04;0.00;0.00;0.00
76101;PMS7003;64830;46.910;6.354;2023-11-19T13:35:30;1.25;1.00;1.00
76101;PMS7003;64830;46.910;6.354;2023-11-19T13:37:55;1.00;1.00;1.00
76101;PMS7003;64830;46.910;6.354;2023-11-19T13:40:20;0.25;0.25;0.00
76101;PMS7003;64830;46.910;6.354;2023-11-19T13:42:47;0.00;0.00;0.00
76101;PMS7003;64830;46.910;6.354;2023-11-19T13:45:13;0.00;0.00;0.00
76101;PMS7003;64830;46.910;6.354;2023-11-19T13:47:40;0.00;0.00;0.00
76101;PMS7003;64830;46.910;6.354;2023-11-19T13:50:07;0.25;0.25;0.25
76101;PMS7003;64830;46.910;6.354;2023-11-19T13:52:40;0.00;0.00;0.00
76101;PMS7003;64830;46.910;6.354;2023-11-19T13:55:07;0.00;0.00;0.00
76101;PMS7003;64830;46.910;6.354;2023-11-19T13:57:34;0.00;0.00;0.00
76101;PMS7003;64830;46.910;6.354;2023-11-19T14:00:01;0.25;0.00;0.00
76101;PMS7003;64830;46.910;6.354;2023-11-19T14:02:31;0.00;0.00;0.00
76101;PMS7003;64830;46.910;6.354;2023-11-19T14:04:57;0.00;0.00;0.00
76101;PMS7003;64830;46.910;6.354;2023-11-19T14:07:22;0.00;0.00;0.00
76101;PMS7003;64830;46.910;6.354;2023-11-19T14:09:47;0.00;0.00;0.00
76101;PMS7003;64830;46.910;6.354;2023-11-19T14:12:13;0.00;0.00;0.00
76101;PMS7003;64830;46.910;6.354;2023-11-19T14:14:38;0.00;0.00;0.00
76101;PMS7003;64830;46.910;6.354;2023-11-19T14:17:04;0.00;0.00;0.00
76101;PMS7003;64830;46.910;6.354;2023-11-19T14:19:30;0.75;0.00;0.00
76101;PMS7003;64830;46.910;6.354;2023-11-19T14:21:55;0.00;0.00;0.00
76101;PMS7003;64830;46.910;6.354;2023-11-19T14:24:21;0.00;0.00;0.00
76101;PMS7003;64830;46.910;6.354;2023-11-19T14:26:47;0.00;0.00;0.00
76101;PMS7003;64830;46.910;6.354;2023-11-19T14:29:13;0.00;0.00;0.00
76101;PMS7003;64830;46.910;6.354;2023-11-19T14:31:40;0.00;0.00;0.00
76101;PMS7003;64830;46.910;6.354;2023-11-19T14:34:06;0.00;0.00;0.00
76101;PMS7003;64830;46.910;6.354;2023-11-19T14:36:31;0.00;0.00;0.00
76101;PMS7003;64830;46.910;6.354;2023-11-19T14:38:56;0.00;0.00;0.00
76101;PMS7003;64830;46.910;6.354;2023-11-19T14:41:23;0.00;0.00;0.00
76101;PMS7003;64830;46.910;6.354;2023-11-19T14:43:49;0.00;0.00;0.00
76101;PMS7003;64830;46.910;6.354;2023-11-19T14:46:15;1.00;1.00;1.00
76101;PMS7003;64830;46.910;6.354;2023-11-19T14:48:40;0.00;0.00;0.00